Time;durP1;ratioP1;P1;durP2;ratioP2;P2;SDS_P1;SDS_P2;PMS_P1;PMS_P2;Temp;Humidity;BMP_temperature;BMP_pressure;BME280_temperature;BME280_humidity;BME280_pressure;Samples;Min_cycle;Max_cycle;Signal;HPM_P1;HPM_P2
2023/05/04 00:00:37;;;;;;;5.43;2.80;;;;;;;6.55;100.00;102800.00;5028499;28;20234;-69
2023/05/04 00:03:03;;;;;;;8.47;3.67;;;;;;;6.57;100.00;102794.25;5028372;28;20214;-70
2023/05/04 00:05:28;;;;;;;11.70;3.60;;;;;;;6.57;100.00;102796.78;5024801;28;20201;-69
2023/05/04 00:07:54;;;;;;;6.93;3.10;;;;;;;6.58;100.00;102790.91;5026265;28;20206;-69
2023/05/04 00:10:19;;;;;;;9.53;3.50;;;;;;;6.54;100.00;102794.03;5028413;28;20222;-70
2023/05/04 00:12:45;;;;;;;7.90;3.03;;;;;;;6.46;100.00;102800.28;5028613;28;20285;-69
2023/05/04 00:15:10;;;;;;;8.37;3.77;;;;;;;6.41;100.00;102806.69;5029013;28;20257;-69
2023/05/04 00:17:36;;;;;;;6.53;3.40;;;;;;;6.36;100.00;102797.00;5028255;28;20198;-69
2023/05/04 00:20:02;;;;;;;9.70;3.50;;;;;;;6.35;100.00;102810.53;5026267;28;20683;-69
2023/05/04 00:22:28;;;;;;;6.70;3.30;;;;;;;6.26;100.00;102800.59;5024984;28;20194;-69
2023/05/04 00:24:53;;;;;;;7.57;3.47;;;;;;;6.24;100.00;102796.16;5020937;28;20253;-70
2023/05/04 00:27:19;;;;;;;10.07;4.00;;;;;;;6.08;100.00;102794.25;5021658;28;20198;-69
2023/05/04 00:29:44;;;;;;;6.80;3.47;;;;;;;6.13;100.00;102795.44;5011230;28;21652;-69
2023/05/04 00:32:09;;;;;;;7.27;4.07;;;;;;;6.11;100.00;102789.38;5027924;28;20807;-70
2023/05/04 00:34:35;;;;;;;6.83;3.47;;;;;;;6.03;100.00;102782.88;5023096;28;20272;-69
2023/05/04 00:37:00;;;;;;;10.57;3.93;;;;;;;6.00;100.00;102784.34;5026568;28;20205;-71
2023/05/04 00:39:26;;;;;;;8.37;3.80;;;;;;;5.93;100.00;102789.75;5024569;28;20202;-70
2023/05/04 00:41:52;;;;;;;9.40;3.70;;;;;;;5.84;100.00;102789.16;5025515;28;20209;-69
2023/05/04 00:44:17;;;;;;;6.87;3.30;;;;;;;5.76;100.00;102788.56;5026603;28;20223;-69
2023/05/04 00:46:43;;;;;;;6.83;2.87;;;;;;;5.65;100.00;102781.88;5027610;28;20186;-69
2023/05/04 00:49:09;;;;;;;4.87;3.20;;;;;;;5.62;100.00;102783.31;5011592;28;20201;-69
2023/05/04 00:51:35;;;;;;;8.77;3.57;;;;;;;5.55;100.00;102787.09;5025254;28;20218;-69
2023/05/04 00:54:01;;;;;;;6.10;3.80;;;;;;;5.48;100.00;102791.63;5010979;28;20194;-69
2023/05/04 00:56:31;;;;;;;7.37;3.60;;;;;;;5.35;100.00;102784.75;5024905;28;20256;-70
2023/05/04 00:58:57;;;;;;;6.80;3.17;;;;;;;5.36;100.00;102783.13;5020159;28;20644;-69
2023/05/04 01:01:24;;;;;;;11.13;3.70;;;;;;;5.25;100.00;102774.72;5027795;28;20225;-70
2023/05/04 01:03:51;;;;;;;7.63;3.93;;;;;;;5.28;100.00;102781.69;5024421;28;20329;-69
2023/05/04 01:06:38;;;;;;;8.70;3.57;;;;;;;5.25;100.00;102771.34;5026972;28;20217;-69
2023/05/04 01:09:29;;;;;;;6.50;3.53;;;;;;;5.26;100.00;102776.53;5008075;28;20298;-69
2023/05/04 01:11:58;;;;;;;8.13;3.60;;;;;;;5.19;100.00;102765.78;5027151;28;20206;-69
2023/05/04 01:14:24;;;;;;;5.77;3.30;;;;;;;5.17;100.00;102777.50;5028960;28;20204;-69
2023/05/04 01:16:54;;;;;;;7.17;3.07;;;;;;;5.11;100.00;102770.31;5011209;28;20559;-69
2023/05/04 01:19:20;;;;;;;7.73;3.60;;;;;;;5.03;100.00;102773.09;5018344;28;20202;-69
2023/05/04 01:21:46;;;;;;;7.17;3.60;;;;;;;4.98;100.00;102771.88;5024675;28;20223;-69
2023/05/04 01:24:12;;;;;;;8.43;3.97;;;;;;;4.94;100.00;102770.78;5027130;28;20237;-69
2023/05/04 01:26:40;;;;;;;8.63;3.90;;;;;;;4.84;100.00;102775.06;5026984;28;20198;-69
2023/05/04 01:29:09;;;;;;;5.80;3.47;;;;;;;4.73;100.00;102768.31;5026765;28;20222;-69
2023/05/04 01:31:37;;;;;;;6.87;3.60;;;;;;;4.70;100.00;102765.56;5005796;28;20217;-69
2023/05/04 01:34:05;;;;;;;7.40;3.90;;;;;;;4.80;100.00;102762.94;5022205;28;20183;-69
2023/05/04 01:36:32;;;;;;;10.47;3.60;;;;;;;4.80;100.00;102763.81;5024660;28;20215;-69
2023/05/04 01:38:58;;;;;;;9.03;4.30;;;;;;;4.71;100.00;102760.63;5024488;28;20563;-69
2023/05/04 01:41:25;;;;;;;7.80;4.30;;;;;;;4.72;100.00;102762.38;5025225;28;20215;-69
2023/05/04 01:43:51;;;;;;;6.83;4.53;;;;;;;4.64;100.00;102765.09;5009017;28;20202;-69
2023/05/04 01:46:16;;;;;;;7.23;3.70;;;;;;;4.64;100.00;102763.47;5024303;28;20252;-69
2023/05/04 01:48:42;;;;;;;9.07;3.73;;;;;;;4.50;100.00;102765.72;5021266;28;20199;-69
2023/05/04 01:51:07;;;;;;;8.60;4.00;;;;;;;4.54;100.00;102761.03;5020658;28;20279;-69
2023/05/04 01:53:33;;;;;;;6.43;4.20;;;;;;;4.51;100.00;102762.47;5024265;28;20287;-69
2023/05/04 01:55:58;;;;;;;9.53;3.90;;;;;;;4.46;100.00;102762.09;5008003;28;20214;-69
2023/05/04 01:58:24;;;;;;;12.27;3.87;;;;;;;4.47;100.00;102763.84;5024314;28;20288;-69
2023/05/04 02:00:49;;;;;;;10.13;4.23;;;;;;;4.39;100.00;102769.13;5008043;28;20256;-69
2023/05/04 02:03:14;;;;;;;6.93;3.70;;;;;;;4.38;100.00;102763.16;5011037;28;20248;-69
2023/05/04 02:05:41;;;;;;;13.13;4.10;;;;;;;4.32;100.00;102756.78;5021579;28;20654;-68
2023/05/04 02:08:06;;;;;;;10.97;4.40;;;;;;;4.25;100.00;102752.91;5007525;28;20249;-69
2023/05/04 02:10:31;;;;;;;8.43;3.80;;;;;;;4.25;100.00;102750.38;5005923;28;20309;-69
2023/05/04 02:12:57;;;;;;;6.93;3.90;;;;;;;4.16;100.00;102754.75;5011035;28;20197;-69
2023/05/04 02:15:22;;;;;;;8.87;4.10;;;;;;;4.20;100.00;102751.69;5028269;28;20223;-69
2023/05/04 02:17:48;;;;;;;7.70;3.87;;;;;;;4.21;100.00;102748.38;5020597;28;20231;-69
2023/05/04 02:20:14;;;;;;;8.60;4.10;;;;;;;4.15;100.00;102750.44;5010064;28;20234;-69
2023/05/04 02:22:44;;;;;;;6.13;4.03;;;;;;;4.13;100.00;102748.53;5008504;28;20202;-69
2023/05/04 02:25:09;;;;;;;6.00;3.80;;;;;;;4.09;100.00;102744.03;5022639;28;20186;-68
2023/05/04 02:27:35;;;;;;;8.77;3.70;;;;;;;4.07;100.00;102749.00;5022884;28;20197;-69
2023/05/04 02:30:01;;;;;;;6.67;3.80;;;;;;;4.05;100.00;102742.91;5026597;28;20224;-69
2023/05/04 02:32:29;;;;;;;8.53;3.80;;;;;;;4.00;100.00;102739.13;4999799;28;20549;-69
2023/05/04 02:34:55;;;;;;;10.57;3.87;;;;;;;3.97;100.00;102733.88;5005991;28;20259;-70
2023/05/04 02:37:21;;;;;;;5.30;3.87;;;;;;;3.96;100.00;102737.13;5023085;28;20226;-70
2023/05/04 02:39:46;;;;;;;10.00;4.47;;;;;;;3.87;100.00;102745.72;5024236;28;20216;-70
2023/05/04 02:42:12;;;;;;;10.10;4.50;;;;;;;3.79;100.00;102741.69;5003614;28;20220;-70
2023/05/04 02:44:37;;;;;;;11.53;4.23;;;;;;;3.87;100.00;102736.44;5024081;28;20194;-69
2023/05/04 02:47:04;;;;;;;8.37;3.90;;;;;;;3.83;100.00;102738.63;5006262;28;20309;-69
2023/05/04 02:49:30;;;;;;;8.77;3.93;;;;;;;3.84;100.00;102745.47;5005012;28;20628;-69
2023/05/04 02:51:55;;;;;;;7.40;4.27;;;;;;;3.85;100.00;102742.16;5022320;28;20202;-69
2023/05/04 02:54:21;;;;;;;6.03;3.60;;;;;;;3.76;100.00;102741.44;5022642;28;20198;-68
2023/05/04 02:56:46;;;;;;;6.37;3.80;;;;;;;3.78;100.00;102733.19;5005543;28;20282;-69
2023/05/04 02:59:12;;;;;;;8.87;3.80;;;;;;;3.76;100.00;102736.38;5007427;28;20206;-69
2023/05/04 03:01:37;;;;;;;9.03;4.43;;;;;;;3.75;100.00;102732.09;5003409;28;20237;-69
2023/05/04 03:04:03;;;;;;;10.73;4.13;;;;;;;3.67;100.00;102735.69;5016714;28;20198;-69
2023/05/04 03:06:28;;;;;;;10.10;4.23;;;;;;;3.68;100.00;102730.75;5025808;28;20229;-69
2023/05/04 03:08:54;;;;;;;10.90;5.60;;;;;;;3.67;100.00;102728.97;5009064;28;20646;-69
2023/05/04 03:11:19;;;;;;;12.23;5.40;;;;;;;3.64;100.00;102722.81;5008712;28;20280;-69
2023/05/04 03:13:44;;;;;;;7.07;4.30;;;;;;;3.63;100.00;102724.44;5027031;28;20265;-70
2023/05/04 03:16:10;;;;;;;8.73;4.50;;;;;;;3.64;100.00;102720.28;5026002;28;20797;-69
2023/05/04 03:18:35;;;;;;;9.07;4.50;;;;;;;3.62;100.00;102722.69;5016426;28;20276;-70
2023/05/04 03:21:02;;;;;;;8.37;4.60;;;;;;;3.63;100.00;102718.50;4992166;28;20214;-70
2023/05/04 03:23:28;;;;;;;6.87;4.43;;;;;;;3.56;100.00;102722.22;5008592;28;20836;-69
2023/05/04 03:25:55;;;;;;;9.80;4.63;;;;;;;3.52;100.00;102720.22;5007990;28;20190;-70
2023/05/04 03:28:21;;;;;;;8.93;4.47;;;;;;;3.54;100.00;102717.81;5025310;28;20199;-69
2023/05/04 03:30:46;;;;;;;11.53;5.20;;;;;;;3.54;100.00;102716.13;5011916;28;20221;-69
2023/05/04 03:33:12;;;;;;;10.67;4.97;;;;;;;3.55;100.00;102712.81;5007805;28;20198;-69
2023/05/04 03:35:37;;;;;;;9.67;4.43;;;;;;;3.56;100.00;102711.19;5022787;28;20691;-69
2023/05/04 03:38:05;;;;;;;7.77;4.60;;;;;;;3.53;100.00;102713.47;5028418;28;20290;-70
2023/05/04 03:40:31;;;;;;;9.87;4.70;;;;;;;3.50;100.00;102711.59;5030115;28;20640;-68
2023/05/04 03:42:56;;;;;;;9.60;4.40;;;;;;;3.50;100.00;102714.13;5027826;28;20353;-69
2023/05/04 03:45:22;;;;;;;8.63;4.30;;;;;;;3.52;100.00;102704.13;5015774;28;20570;-68
2023/05/04 03:47:48;;;;;;;9.40;4.50;;;;;;;3.47;100.00;102711.38;5008543;28;20193;-69
2023/05/04 03:50:13;;;;;;;7.97;4.17;;;;;;;3.43;100.00;102695.81;5010692;28;20210;-69
2023/05/04 03:52:40;;;;;;;8.30;4.47;;;;;;;3.50;100.00;102701.47;5021077;28;20198;-68
2023/05/04 03:55:07;;;;;;;7.33;4.40;;;;;;;3.53;100.00;102705.88;5011550;28;20218;-70
2023/05/04 03:57:32;;;;;;;7.10;4.67;;;;;;;3.55;100.00;102704.38;5024904;28;20217;-69
2023/05/04 03:59:58;;;;;;;14.07;4.60;;;;;;;3.53;100.00;102701.72;5012959;28;20577;-69
2023/05/04 04:02:26;;;;;;;10.53;4.63;;;;;;;3.53;100.00;102698.28;5015305;28;20317;-68
2023/05/04 04:04:51;;;;;;;6.70;4.33;;;;;;;3.55;100.00;102709.44;5020357;28;20664;-69
2023/05/04 04:07:17;;;;;;;10.03;4.87;;;;;;;3.57;100.00;102692.69;5025504;28;20209;-68
2023/05/04 04:09:43;;;;;;;8.73;4.00;;;;;;;3.57;100.00;102700.28;5009455;28;20210;-69
2023/05/04 04:12:08;;;;;;;11.73;5.07;;;;;;;3.62;100.00;102699.00;5030821;28;20280;-69
2023/05/04 04:14:33;;;;;;;7.37;4.33;;;;;;;3.66;100.00;102690.88;5027892;28;20201;-69
2023/05/04 04:16:59;;;;;;;10.40;4.63;;;;;;;3.62;100.00;102706.59;5022228;28;20229;-69
2023/05/04 04:19:25;;;;;;;9.57;5.07;;;;;;;3.73;100.00;102700.72;5025413;28;20198;-69
2023/05/04 04:21:51;;;;;;;11.67;5.20;;;;;;;3.78;100.00;102702.81;5023559;28;20201;-68
2023/05/04 04:24:16;;;;;;;8.33;4.90;;;;;;;3.78;100.00;102712.94;5020537;28;20202;-68
2023/05/04 04:26:42;;;;;;;10.83;4.70;;;;;;;3.86;100.00;102708.47;5026649;28;20233;-68
2023/05/04 04:29:07;;;;;;;10.10;4.70;;;;;;;3.94;100.00;102709.91;5027523;28;20269;-68
2023/05/04 04:31:32;;;;;;;13.97;4.83;;;;;;;4.02;100.00;102708.84;5021589;28;20262;-68
2023/05/04 04:33:58;;;;;;;11.77;4.93;;;;;;;4.08;100.00;102712.72;5022525;28;20299;-68
2023/05/04 04:36:24;;;;;;;13.63;5.90;;;;;;;4.17;100.00;102710.88;5023062;28;20218;-69
2023/05/04 04:38:50;;;;;;;16.47;5.07;;;;;;;4.27;100.00;102715.88;5027716;28;20221;-68
2023/05/04 04:41:16;;;;;;;11.33;5.73;;;;;;;4.38;100.00;102714.13;5029143;28;20250;-69
2023/05/04 04:43:41;;;;;;;12.43;5.47;;;;;;;4.46;100.00;102716.44;5022316;28;20660;-69
2023/05/04 04:46:07;;;;;;;11.77;5.00;;;;;;;4.54;100.00;102715.38;5022171;28;20195;-69
2023/05/04 04:48:32;;;;;;;8.60;5.10;;;;;;;4.61;100.00;102711.63;5023378;28;20201;-69
2023/05/04 04:50:58;;;;;;;10.43;5.17;;;;;;;4.68;100.00;102714.72;5020551;28;20293;-69
2023/05/04 04:53:23;;;;;;;17.30;5.87;;;;;;;4.81;100.00;102706.34;5024583;28;20234;-69
2023/05/04 04:55:48;;;;;;;13.23;6.13;;;;;;;4.98;100.00;102713.50;5029399;28;20206;-69
2023/05/04 04:58:14;;;;;;;17.67;6.40;;;;;;;5.15;100.00;102710.53;5029937;28;20564;-69
2023/05/04 05:00:39;;;;;;;14.27;6.90;;;;;;;5.31;100.00;102711.72;5025593;28;20301;-69
2023/05/04 05:03:05;;;;;;;12.60;6.13;;;;;;;5.46;100.00;102715.31;5026751;28;20200;-69
2023/05/04 05:05:30;;;;;;;13.90;6.37;;;;;;;5.67;100.00;102708.28;5020591;28;20289;-69
2023/05/04 05:07:56;;;;;;;13.27;5.60;;;;;;;5.83;100.00;102704.38;5023170;28;20703;-69
2023/05/04 05:10:21;;;;;;;13.43;5.47;;;;;;;6.03;100.00;102711.69;5028969;28;20925;-69
2023/05/04 05:12:48;;;;;;;16.03;6.50;;;;;;;6.22;100.00;102711.28;5023527;28;20699;-69
2023/05/04 05:15:14;;;;;;;13.70;5.33;;;;;;;6.48;100.00;102704.56;5020825;28;20230;-69
2023/05/04 05:17:40;;;;;;;13.03;4.70;;;;;;;6.72;100.00;102703.59;5019948;28;20267;-68
2023/05/04 05:20:09;;;;;;;9.70;4.77;;;;;;;6.96;100.00;102696.66;5021857;28;20276;-69
2023/05/04 05:22:39;;;;;;;11.40;4.30;;;;;;;7.15;100.00;102700.47;5024106;28;20557;-69
2023/05/04 05:25:05;;;;;;;11.37;3.60;;;;;;;7.39;100.00;102690.91;5027788;28;20820;-69
2023/05/04 05:27:33;;;;;;;8.37;3.40;;;;;;;7.68;100.00;102653.66;5001544;28;20222;-69
2023/05/04 05:29:59;;;;;;;12.10;3.67;;;;;;;7.86;100.00;102636.91;5013159;28;20234;-69
2023/05/04 05:32:24;;;;;;;12.10;3.00;;;;;;;8.03;100.00;102623.47;5022339;28;20233;-69
2023/05/04 05:34:50;;;;;;;9.43;3.33;;;;;;;8.23;100.00;102594.00;5022349;28;20270;-70
2023/05/04 05:37:15;;;;;;;8.93;3.13;;;;;;;8.41;100.00;102579.72;5022649;28;20238;-69
2023/05/04 05:39:41;;;;;;;10.53;3.23;;;;;;;8.48;100.00;102549.53;5024904;28;20230;-70
2023/05/04 05:42:07;;;;;;;8.27;2.80;;;;;;;8.63;100.00;102519.75;5021632;28;20304;-67
2023/05/04 05:44:36;;;;;;;7.50;2.30;;;;;;;8.76;100.00;102493.19;5026099;28;20315;-70
2023/05/04 05:47:02;;;;;;;9.07;2.70;;;;;;;8.74;100.00;102507.53;5016602;28;20844;-69
2023/05/04 05:49:28;;;;;;;12.37;3.10;;;;;;;8.97;100.00;102527.50;5023581;28;20210;-69
2023/05/04 05:51:53;;;;;;;7.57;2.83;;;;;;;9.11;100.00;102521.44;5003905;28;20644;-69
2023/05/04 05:54:21;;;;;;;8.50;2.83;;;;;;;9.09;100.00;102533.28;5024124;28;20277;-68
2023/05/04 05:56:47;;;;;;;11.40;3.60;;;;;;;9.25;100.00;102523.91;5007768;28;20242;-69
2023/05/04 05:59:14;;;;;;;6.27;2.60;;;;;;;9.41;100.00;102515.34;5020508;28;20196;-70
2023/05/04 06:01:39;;;;;;;7.70;2.60;;;;;;;9.63;100.00;102485.81;5019255;28;20700;-70
2023/05/04 06:04:05;;;;;;;10.27;2.77;;;;;;;9.78;100.00;102463.56;5022067;28;20207;-69
2023/05/04 06:06:30;;;;;;;8.63;2.83;;;;;;;9.92;100.00;102428.38;5009166;28;20209;-69
2023/05/04 06:08:55;;;;;;;6.90;2.20;;;;;;;10.00;100.00;102438.16;5023291;28;20281;-70
2023/05/04 06:11:21;;;;;;;6.27;2.60;;;;;;;10.19;100.00;102396.44;5019915;28;20218;-69
2023/05/04 06:13:46;;;;;;;9.67;2.87;;;;;;;10.33;100.00;102382.59;5006811;28;20202;-69
2023/05/04 06:16:13;;;;;;;8.40;3.33;;;;;;;10.37;100.00;102380.22;5026367;28;20303;-69
2023/05/04 06:18:38;;;;;;;7.10;2.73;;;;;;;10.42;100.00;102388.97;5019879;28;20202;-69
2023/05/04 06:21:04;;;;;;;9.10;2.60;;;;;;;10.35;100.00;102365.59;5029448;28;20241;-68
2023/05/04 06:23:30;;;;;;;7.50;3.07;;;;;;;10.37;100.00;102374.22;5027919;28;20193;-68
2023/05/04 06:25:55;;;;;;;9.60;2.50;;;;;;;10.54;100.00;102381.84;5018018;28;20186;-68
2023/05/04 06:28:21;;;;;;;7.80;2.40;;;;;;;10.58;100.00;102358.13;5015202;28;20222;-69
2023/05/04 06:30:47;;;;;;;6.93;2.67;;;;;;;10.71;100.00;102346.72;5019901;28;20206;-69
2023/05/04 06:33:13;;;;;;;5.43;2.37;;;;;;;10.81;100.00;102341.16;5018842;28;20559;-68
2023/05/04 06:35:38;;;;;;;10.10;2.57;;;;;;;11.09;100.00;102332.13;5004997;28;20214;-69
2023/05/04 06:38:03;;;;;;;6.73;2.97;;;;;;;11.15;100.00;102318.69;5012774;28;20592;-69
2023/05/04 06:40:29;;;;;;;7.40;2.53;;;;;;;11.23;100.00;102305.38;5016703;28;20245;-69
2023/05/04 06:42:54;;;;;;;7.87;2.83;;;;;;;11.28;100.00;102324.38;5003683;28;20222;-69
2023/05/04 06:45:20;;;;;;;5.67;2.67;;;;;;;11.46;100.00;102301.13;5004187;28;20234;-69
2023/05/04 06:47:46;;;;;;;6.77;2.57;;;;;;;11.68;100.00;102301.19;5020964;28;20316;-70
2023/05/04 06:50:11;;;;;;;9.13;2.70;;;;;;;11.81;100.00;102273.50;5022150;28;20229;-69
2023/05/04 06:52:38;;;;;;;6.07;2.43;;;;;;;11.81;100.00;102280.31;5000931;28;20632;-69
2023/05/04 06:55:05;;;;;;;6.73;2.63;;;;;;;11.89;100.00;102212.19;5021300;28;21077;-68
2023/05/04 06:57:31;;;;;;;6.03;2.20;;;;;;;12.17;100.00;102222.59;5023170;28;20563;-69
2023/05/04 06:59:56;;;;;;;5.30;2.40;;;;;;;12.16;100.00;102166.94;5001229;28;20238;-69
2023/05/04 07:02:22;;;;;;;6.60;2.50;;;;;;;11.89;100.00;102176.25;5016328;28;20636;-68
2023/05/04 07:04:47;;;;;;;6.43;2.37;;;;;;;12.05;100.00;102188.78;5022974;28;20203;-68
2023/05/04 07:07:13;;;;;;;7.47;2.33;;;;;;;12.17;100.00;102172.09;5022522;28;20198;-69
2023/05/04 07:09:40;;;;;;;8.13;2.53;;;;;;;12.36;100.00;102191.59;5016089;28;20229;-69
2023/05/04 07:12:05;;;;;;;6.20;2.30;;;;;;;12.62;100.00;102171.06;5003300;28;20256;-67
2023/05/04 07:14:31;;;;;;;7.20;2.87;;;;;;;12.83;100.00;102161.47;5020739;28;20198;-70
2023/05/04 07:16:56;;;;;;;7.00;2.57;;;;;;;12.83;100.00;102147.72;5015981;28;20755;-69
2023/05/04 07:19:22;;;;;;;7.60;2.40;;;;;;;12.97;98.95;102136.19;5023558;28;20692;-69
2023/05/04 07:21:47;;;;;;;5.37;2.13;;;;;;;12.88;98.93;102131.63;5017292;28;20226;-68
2023/05/04 07:24:13;;;;;;;9.00;2.87;;;;;;;13.22;99.15;102130.09;5012244;28;20274;-69
2023/05/04 07:26:38;;;;;;;6.90;2.60;;;;;;;13.43;100.00;102141.00;5015505;28;20190;-69
2023/05/04 07:29:04;;;;;;;7.23;2.50;;;;;;;13.55;99.47;102131.06;5020570;28;20211;-68
2023/05/04 07:31:29;;;;;;;5.33;2.27;;;;;;;13.39;91.58;102080.84;5011787;28;20237;-69
2023/05/04 07:33:55;;;;;;;8.23;2.50;;;;;;;13.44;93.18;102081.84;5016352;28;20241;-69
2023/05/04 07:36:21;;;;;;;7.77;2.47;;;;;;;13.75;91.48;102075.81;5023089;28;20209;-69
2023/05/04 07:38:46;;;;;;;6.83;2.53;;;;;;;13.89;92.07;102077.06;5016310;28;20310;-68
2023/05/04 07:41:12;;;;;;;7.13;2.63;;;;;;;14.14;89.29;102056.25;5018673;28;20213;-68
2023/05/04 07:43:37;;;;;;;6.30;2.23;;;;;;;14.27;85.96;102028.25;5021594;28;20652;-68
2023/05/04 07:46:03;;;;;;;6.83;2.43;;;;;;;14.07;84.72;102018.28;5017406;28;20191;-68
2023/05/04 07:48:28;;;;;;;5.60;2.13;;;;;;;13.90;85.76;102032.47;5021501;28;20875;-68
2023/05/04 07:50:54;;;;;;;7.83;2.63;;;;;;;13.95;90.38;102049.75;5019489;28;20738;-69
2023/05/04 07:53:24;;;;;;;4.90;1.83;;;;;;;14.14;87.60;102049.38;5013103;28;20653;-68
2023/05/04 07:55:49;;;;;;;5.57;2.17;;;;;;;14.13;84.28;102029.59;5019789;28;20225;-69
2023/05/04 07:58:15;;;;;;;6.50;2.30;;;;;;;14.13;80.38;102003.00;5019933;28;20187;-69
2023/05/04 08:00:40;;;;;;;8.67;2.80;;;;;;;14.34;78.96;101998.34;5004811;28;20214;-69
2023/05/04 08:03:06;;;;;;;4.77;2.03;;;;;;;14.66;80.13;102012.81;5017569;28;20622;-69
2023/05/04 08:05:31;;;;;;;4.47;1.90;;;;;;;14.77;77.09;102008.75;5021067;28;20186;-69
2023/05/04 08:07:57;;;;;;;7.23;2.57;;;;;;;14.73;74.96;101988.94;5012610;28;20183;-68
2023/05/04 08:10:22;;;;;;;5.73;2.13;;;;;;;14.84;79.74;102020.94;5016507;28;20230;-69
2023/05/04 08:12:48;;;;;;;3.90;1.83;;;;;;;14.82;78.73;102035.53;5023914;28;20253;-68
2023/05/04 08:15:13;;;;;;;7.67;2.70;;;;;;;14.74;71.92;102011.28;5021405;28;20226;-69
2023/05/04 08:17:39;;;;;;;8.80;2.77;;;;;;;14.62;72.59;102057.41;5023039;28;20214;-69
2023/05/04 08:20:09;;;;;;;4.70;2.20;;;;;;;14.86;73.22;102069.16;5030334;28;20602;-67
2023/05/04 08:22:34;;;;;;;5.80;2.67;;;;;;;15.04;73.29;102084.13;5025992;28;20221;-69
2023/05/04 08:25:00;;;;;;;8.50;2.83;;;;;;;14.84;73.57;102081.16;5025137;28;20214;-69
2023/05/04 08:27:25;;;;;;;7.80;2.73;;;;;;;14.88;72.31;102074.34;5026123;28;20198;-68
2023/05/04 08:29:51;;;;;;;7.83;2.20;;;;;;;15.12;70.83;102065.41;5021446;28;20233;-69
2023/05/04 08:32:16;;;;;;;9.43;2.70;;;;;;;15.12;70.19;102069.69;5027354;28;20727;-69
2023/05/04 08:34:42;;;;;;;4.73;2.07;;;;;;;15.32;74.24;102101.94;5028056;28;20201;-69
2023/05/04 08:37:07;;;;;;;8.87;2.40;;;;;;;15.36;68.50;102055.63;5015711;28;20209;-69
2023/05/04 08:39:33;;;;;;;8.83;2.40;;;;;;;15.80;68.42;102062.44;5015500;28;20297;-69
2023/05/04 08:41:58;;;;;;;7.43;2.40;;;;;;;15.62;66.44;102041.50;5021572;28;20210;-68
2023/05/04 08:44:24;;;;;;;5.40;2.33;;;;;;;15.35;68.33;102060.75;5023282;28;20290;-69
2023/05/04 08:46:52;;;;;;;4.37;2.03;;;;;;;15.26;67.54;102058.81;5024070;28;20200;-69
2023/05/04 08:49:21;;;;;;;6.53;2.80;;;;;;;15.45;70.48;102079.03;5021976;28;20234;-70
2023/05/04 08:51:49;;;;;;;8.30;2.50;;;;;;;15.93;72.07;102087.66;5016824;28;20226;-69
2023/05/04 08:54:15;;;;;;;7.73;2.30;;;;;;;16.26;64.32;102030.50;5016923;28;20198;-68
2023/05/04 08:56:41;;;;;;;8.27;2.70;;;;;;;16.26;62.93;102026.19;5022968;28;20276;-69
2023/05/04 08:59:12;;;;;;;4.97;2.17;;;;;;;16.37;65.55;102059.97;5021653;28;20694;-69
2023/05/04 09:01:37;;;;;;;6.17;2.57;;;;;;;16.52;65.46;102049.88;5023225;28;20214;-69
2023/05/04 09:04:04;;;;;;;5.77;2.30;;;;;;;16.40;57.29;101998.00;5022116;28;20651;-67
2023/05/04 09:06:30;;;;;;;5.27;2.30;;;;;;;16.65;58.42;102013.00;5011385;28;20191;-69
2023/05/04 09:08:56;;;;;;;7.10;2.50;;;;;;;16.60;58.46;102022.41;5018785;28;20199;-70
2023/05/04 09:11:22;;;;;;;7.57;3.10;;;;;;;16.59;59.01;102029.31;5019603;28;20225;-69
2023/05/04 09:13:47;;;;;;;9.10;2.50;;;;;;;17.19;58.25;102034.41;5010221;28;20656;-69
2023/05/04 09:16:15;;;;;;;6.37;2.50;;;;;;;17.21;54.71;102025.81;5020564;28;20226;-69
2023/05/04 09:18:43;;;;;;;5.50;2.40;;;;;;;17.53;56.79;102057.25;5025834;28;20186;-69
2023/05/04 09:21:10;;;;;;;6.20;2.27;;;;;;;17.50;55.31;102047.72;5022605;28;20722;-68
2023/05/04 09:23:54;;;;;;;3.50;2.27;;;;;;;17.42;55.21;102067.53;5020638;28;20198;-69
2023/05/04 09:26:30;;;;;;;4.70;2.10;;;;;;;17.61;53.38;102045.25;5018450;28;20714;-69
2023/05/04 09:28:56;;;;;;;6.47;2.10;;;;;;;17.75;52.91;102054.03;5025516;28;20273;-69
2023/05/04 09:31:22;;;;;;;4.40;2.10;;;;;;;17.97;50.58;102037.81;5019731;28;20210;-68
2023/05/04 09:33:48;;;;;;;5.83;2.13;;;;;;;18.19;51.46;102045.78;5019187;28;20248;-68
2023/05/04 09:36:19;;;;;;;6.37;2.13;;;;;;;18.33;50.12;102039.00;5018004;28;20306;-68
2023/05/04 09:38:45;;;;;;;7.53;2.20;;;;;;;18.47;49.77;102041.72;5019365;28;20233;-69
2023/05/04 09:41:11;;;;;;;9.13;2.07;;;;;;;18.69;49.58;102038.34;5017532;28;20231;-68
2023/05/04 09:43:41;;;;;;;4.67;2.00;;;;;;;18.44;48.87;102050.34;5026465;28;20272;-68
2023/05/04 09:46:15;;;;;;;9.00;2.43;;;;;;;18.51;48.87;102059.88;5018273;28;20195;-68
2023/05/04 09:48:50;;;;;;;5.87;1.87;;;;;;;18.62;49.52;102067.75;5023263;28;20225;-68
2023/05/04 09:51:20;;;;;;;4.73;2.03;;;;;;;18.42;48.82;102057.22;5019705;28;20765;-69
2023/05/04 09:53:48;;;;;;;4.93;2.10;;;;;;;18.75;49.23;102066.97;5021544;28;20194;-68
2023/05/04 09:56:24;;;;;;;5.23;2.23;;;;;;;18.40;49.61;102076.22;5017075;28;20255;-68
2023/05/04 09:58:50;;;;;;;4.90;2.13;;;;;;;18.57;49.61;102079.81;5021843;28;20190;-69
2023/05/04 10:01:16;;;;;;;8.20;2.63;;;;;;;18.58;49.07;102064.28;5017730;28;20219;-69
2023/05/04 10:03:42;;;;;;;5.70;2.33;;;;;;;18.28;48.44;102056.22;5019997;28;20259;-68
2023/05/04 10:06:10;;;;;;;4.93;2.33;;;;;;;18.74;50.29;102094.63;5020435;28;20283;-68
2023/05/04 10:08:37;;;;;;;5.90;2.10;;;;;;;19.09;48.80;102061.06;5016467;28;20187;-68
2023/05/04 10:11:03;;;;;;;3.23;1.70;;;;;;;18.87;48.61;102051.44;5017724;28;20269;-68
2023/05/04 10:13:28;;;;;;;7.37;2.37;;;;;;;18.95;48.02;102053.22;5022633;28;20195;-69
2023/05/04 10:16:00;;;;;;;6.60;2.20;;;;;;;19.02;49.59;102088.72;5019466;28;20241;-68
2023/05/04 10:18:46;;;;;;;4.80;2.47;;;;;;;19.05;48.47;102057.59;5020376;28;20253;-68
2023/05/04 10:21:41;;;;;;;5.17;1.90;;;;;;;19.18;47.34;102040.31;5001170;28;20754;-67
2023/05/04 10:24:18;;;;;;;7.37;2.30;;;;;;;19.13;46.40;102042.94;5007334;28;20198;-68
2023/05/04 10:27:09;;;;;;;4.23;2.47;;;;;;;19.06;47.44;102056.72;5021791;28;20225;-68
2023/05/04 10:29:36;;;;;;;5.13;1.90;;;;;;;19.41;50.42;102114.06;5021108;28;20194;-68
2023/05/04 10:32:02;;;;;;;5.20;2.23;;;;;;;19.53;46.95;102036.16;5017371;28;20290;-69
2023/05/04 10:34:30;;;;;;;4.67;2.30;;;;;;;19.59;43.12;102008.44;5023753;28;20200;-68
2023/05/04 10:36:57;;;;;;;7.33;2.60;;;;;;;19.01;44.81;102067.94;5012458;28;20265;-68
2023/05/04 10:39:29;;;;;;;4.30;2.40;;;;;;;19.28;45.13;102086.28;5015716;28;20197;-68
2023/05/04 10:42:02;;;;;;;3.90;2.17;;;;;;;19.00;45.95;102084.41;5006675;28;20205;-68
2023/05/04 10:44:30;;;;;;;6.07;2.17;;;;;;;19.66;45.78;102087.28;5024716;28;20203;-69
2023/05/04 10:46:57;;;;;;;6.97;2.50;;;;;;;19.17;42.70;102031.66;5022214;28;20191;-68
2023/05/04 10:49:22;;;;;;;3.47;2.20;;;;;;;19.60;43.62;102063.88;5019426;28;20668;-68
2023/05/04 10:51:48;;;;;;;4.77;2.10;;;;;;;19.59;42.63;102060.41;5019716;28;20187;-68
2023/05/04 10:54:20;;;;;;;4.80;2.30;;;;;;;19.51;42.24;102214.56;5013857;28;20198;-67
2023/05/04 10:56:46;;;;;;;6.67;2.63;;;;;;;19.65;43.29;102237.19;5020969;28;20218;-68
2023/05/04 10:59:13;;;;;;;7.20;2.50;;;;;;;19.24;42.77;102210.09;5022240;28;20233;-68
2023/05/04 11:01:46;;;;;;;5.27;2.30;;;;;;;19.44;42.40;102202.44;5020163;28;20230;-68
2023/05/04 11:04:21;;;;;;;5.43;2.10;;;;;;;19.33;43.17;102215.34;5021843;28;20194;-68
2023/05/04 11:07:15;;;;;;;3.80;1.93;;;;;;;19.69;43.31;102199.06;5022714;28;20230;-69
2023/05/04 11:09:43;;;;;;;4.67;2.23;;;;;;;19.80;42.75;102197.41;5002146;28;20281;-68
2023/05/04 11:12:12;;;;;;;5.20;2.37;;;;;;;19.56;41.84;102192.94;5017935;28;20258;-68
2023/05/04 11:14:41;;;;;;;5.50;2.50;;;;;;;19.79;41.16;102186.09;5021744;28;21952;-68
2023/05/04 11:17:07;;;;;;;4.53;2.00;;;;;;;19.86;41.71;102189.59;5018722;28;20213;-68
2023/05/04 11:19:33;;;;;;;4.67;2.20;;;;;;;20.04;41.60;102181.84;5014304;28;20193;-68